createdAt,value
2022-08-11T00:01:07.790Z,25.57
2022-08-11T00:03:43.012Z,25.53
2022-08-11T00:06:14.087Z,25.49
2022-08-11T00:08:43.274Z,25.45
2022-08-11T00:11:12.594Z,25.43
2022-08-11T00:13:46.390Z,25.40
2022-08-11T00:16:23.849Z,25.37
2022-08-11T00:18:55.013Z,25.32
2022-08-11T00:22:01.922Z,25.29
2022-08-11T00:24:11.346Z,25.24
2022-08-11T00:26:38.259Z,25.21
2022-08-11T00:29:12.277Z,25.18
2022-08-11T00:31:46.840Z,25.13
2022-08-11T00:34:15.245Z,25.11
2022-08-11T00:37:00.196Z,25.08
2022-08-11T00:39:29.335Z,25.04
2022-08-11T00:42:43.128Z,24.99
2022-08-11T00:45:24.763Z,24.96
2022-08-11T00:48:28.620Z,24.89
2022-08-11T00:51:57.707Z,24.84
2022-08-11T00:54:52.465Z,24.81
2022-08-11T00:57:53.036Z,24.77
2022-08-11T01:00:25.430Z,24.75
2022-08-11T01:03:18.810Z,24.72
2022-08-11T01:06:32.942Z,24.67
2022-08-11T01:09:48.412Z,24.62
2022-08-11T01:12:43.040Z,24.58
2022-08-11T01:15:59.491Z,24.51
2022-08-11T01:19:19.084Z,24.47
2022-08-11T01:22:44.233Z,24.40
2022-08-11T01:26:15.864Z,24.35
2022-08-11T01:29:33.902Z,24.31
2022-08-11T01:32:40.991Z,24.25
2022-08-11T01:36:05.755Z,24.20
2022-08-11T01:39:18.319Z,24.16
2022-08-11T01:43:01.169Z,24.11
2022-08-11T01:46:00.694Z,24.09
2022-08-11T01:48:43.867Z,24.07
2022-08-11T01:51:41.975Z,24.04
2022-08-11T01:55:07.540Z,23.98
2022-08-11T01:58:00.985Z,23.96
2022-08-11T02:00:30.559Z,23.95
2022-08-11T02:03:17.063Z,23.92
2022-08-11T02:06:01.397Z,23.90
2022-08-11T02:08:58.545Z,23.86
2022-08-11T02:11:37.546Z,23.85
2022-08-11T02:14:34.659Z,23.82
2022-08-11T02:17:46.233Z,23.77
2022-08-11T02:20:49.092Z,23.76
2022-08-11T02:24:06.804Z,23.72
2022-08-11T02:26:48.621Z,23.69
2022-08-11T02:29:47.483Z,23.64
2022-08-11T02:32:51.736Z,23.61
2022-08-11T02:35:36.542Z,23.58
2022-08-11T02:38:19.788Z,23.44
2022-08-11T02:41:31.052Z,23.45
2022-08-11T02:44:49.113Z,23.40
2022-08-11T02:48:18.140Z,23.38
2022-08-11T02:51:37.408Z,23.33
2022-08-11T02:54:25.179Z,23.34
2022-08-11T02:57:05.115Z,23.33
2022-08-11T03:00:07.378Z,23.31
2022-08-11T03:03:10.903Z,23.26
2022-08-11T03:06:04.982Z,23.24
2022-08-11T03:09:14.297Z,23.20
2022-08-11T03:12:22.922Z,23.18
2022-08-11T03:15:44.724Z,23.11
2022-08-11T03:18:26.835Z,23.10
2022-08-11T03:21:22.082Z,23.06
2022-08-11T03:23:58.640Z,23.04
2022-08-11T03:26:43.342Z,23.02
2022-08-11T03:29:25.189Z,22.92
2022-08-11T03:32:26.800Z,22.92
2022-08-11T03:34:57.692Z,22.95
2022-08-11T03:37:51.599Z,22.94
2022-08-11T03:42:01.347Z,22.89
2022-08-11T03:44:25.328Z,22.85
2022-08-11T03:47:37.295Z,22.80
2022-08-11T03:50:30.155Z,22.78
2022-08-11T03:53:54.878Z,22.72
2022-08-11T03:57:04.112Z,22.71
2022-08-11T04:00:14.552Z,22.65
2022-08-11T04:03:07.792Z,22.64
2022-08-11T04:06:20.848Z,22.60
2022-08-11T04:09:37.797Z,22.55
2022-08-11T04:13:02.859Z,22.53
2022-08-11T04:16:00.667Z,22.52
2022-08-11T04:19:21.289Z,22.48
2022-08-11T04:22:22.321Z,22.47
2022-08-11T04:25:29.402Z,22.48
2022-08-11T04:28:28.937Z,22.50
2022-08-11T04:31:52.041Z,22.48
2022-08-11T04:34:46.160Z,22.49
2022-08-11T04:37:50.761Z,22.50
2022-08-11T04:40:56.705Z,22.48
2022-08-11T04:44:11.184Z,22.50
2022-08-11T04:46:59.618Z,22.51
2022-08-11T04:50:20.449Z,22.52
2022-08-11T04:53:22.083Z,22.56
2022-08-11T04:56:37.096Z,22.59
2022-08-11T04:59:59.542Z,22.69
2022-08-11T05:03:16.589Z,23.01
2022-08-11T05:06:19.036Z,23.45
2022-08-11T05:09:14.577Z,23.97
2022-08-11T05:12:13.582Z,24.58
2022-08-11T05:15:11.021Z,25.10
2022-08-11T05:18:14.428Z,25.62
2022-08-11T05:21:13.053Z,26.14
2022-08-11T05:24:07.062Z,26.62
2022-08-11T05:27:08.756Z,27.11
2022-08-11T05:30:21.095Z,27.63
2022-08-11T05:33:26.693Z,28.06
2022-08-11T05:36:17.555Z,28.41
2022-08-11T05:39:16.581Z,28.79
2022-08-11T05:42:02.518Z,29.21
2022-08-11T05:44:49.577Z,29.47
2022-08-11T05:47:45.964Z,29.56
2022-08-11T05:50:34.781Z,29.61
2022-08-11T05:53:24.378Z,29.57
2022-08-11T05:56:11.581Z,29.51
2022-08-11T05:58:53.597Z,29.56
2022-08-11T06:04:26.200Z,29.51
2022-08-11T06:07:00.848Z,29.52
2022-08-11T06:09:50.535Z,29.61
2022-08-11T06:12:32.508Z,29.82
2022-08-11T06:15:11.381Z,30.06
2022-08-11T06:17:46.998Z,30.22
2022-08-11T06:20:16.634Z,30.37
2022-08-11T06:22:52.382Z,30.42
2022-08-11T06:25:20.157Z,30.48
2022-08-11T06:27:56.194Z,30.74
2022-08-11T06:30:46.556Z,31.13
2022-08-11T06:33:48.161Z,31.51
2022-08-11T06:36:41.538Z,31.78
2022-08-11T06:39:23.099Z,31.89
2022-08-11T06:42:04.563Z,32.11
2022-08-11T06:44:40.850Z,32.20
2022-08-11T06:47:13.195Z,32.25
2022-08-11T06:50:04.487Z,32.45
2022-08-11T06:52:37.516Z,32.70
2022-08-11T06:55:57.282Z,32.77
2022-08-11T06:58:22.686Z,32.72
2022-08-11T07:00:56.398Z,32.77
2022-08-11T07:03:25.651Z,32.86
2022-08-11T07:06:05.416Z,32.99
2022-08-11T07:09:32.187Z,33.22
2022-08-11T07:12:52.768Z,33.60
2022-08-11T07:16:11.422Z,34.08
2022-08-11T07:18:48.626Z,34.55
2022-08-11T07:22:02.782Z,35.01
2022-08-11T07:25:01.667Z,35.30
2022-08-11T07:28:01.634Z,35.33
2022-08-11T07:30:29.338Z,35.36
2022-08-11T07:32:59.969Z,35.40
2022-08-11T07:35:42.951Z,35.38
2022-08-11T07:38:43.153Z,35.22
2022-08-11T07:41:12.760Z,35.32
2022-08-11T07:43:41.572Z,35.54
2022-08-11T07:46:28.886Z,35.71
2022-08-11T07:49:14.632Z,35.91
2022-08-11T07:52:02.230Z,35.91
2022-08-11T07:54:33.336Z,35.92
2022-08-11T07:57:09.016Z,35.73
2022-08-11T08:00:03.872Z,35.39
2022-08-11T08:02:50.241Z,35.15
2022-08-11T08:05:37.649Z,35.00
2022-08-11T08:08:25.311Z,34.91
2022-08-11T08:11:13.239Z,34.80
2022-08-11T08:14:00.423Z,34.88
2022-08-11T08:16:48.779Z,34.90
2022-08-11T08:19:19.379Z,34.84
2022-08-11T08:21:47.783Z,34.65
2022-08-11T08:24:15.348Z,34.50
2022-08-11T08:26:59.026Z,34.38
2022-08-11T08:29:48.330Z,34.34
2022-08-11T08:32:17.837Z,34.30
2022-08-11T08:34:46.229Z,34.20
2022-08-11T08:37:45.301Z,34.17
2022-08-11T08:40:02.973Z,34.08
2022-08-11T08:42:33.074Z,33.92
2022-08-11T08:45:09.718Z,33.80
2022-08-11T08:48:10.638Z,33.64
2022-08-11T08:51:08.044Z,33.45
2022-08-11T08:53:39.598Z,33.24
2022-08-11T08:56:28.092Z,33.03
2022-08-11T08:58:57.873Z,32.84
2022-08-11T09:01:26.142Z,32.73
2022-08-11T09:04:04.848Z,32.60
2022-08-11T09:06:40.038Z,32.43
2022-08-11T09:09:08.894Z,32.33
2022-08-11T09:11:50.090Z,32.24
2022-08-11T09:14:18.346Z,32.16
2022-08-11T09:16:46.981Z,32.10
2022-08-11T09:19:17.681Z,32.09
2022-08-11T09:22:11.652Z,32.10
2022-08-11T09:24:58.557Z,32.09
2022-08-11T09:27:26.520Z,32.07
2022-08-11T09:29:54.609Z,32.07
2022-08-11T09:32:22.802Z,32.04
2022-08-11T09:34:52.194Z,32.02
2022-08-11T09:37:54.607Z,32.03
2022-08-11T09:40:31.035Z,32.03
2022-08-11T09:43:24.872Z,32.06
2022-08-11T09:45:53.485Z,32.11
2022-08-11T09:48:25.925Z,32.18
2022-08-11T09:50:56.717Z,32.25
2022-08-11T09:53:35.711Z,32.26
2022-08-11T09:56:41.202Z,32.33
2022-08-11T09:59:09.271Z,32.35
2022-08-11T10:01:47.289Z,32.38
2022-08-11T10:04:23.213Z,32.40
2022-08-11T10:07:04.431Z,32.44
2022-08-11T10:09:50.748Z,32.48
2022-08-11T10:12:25.611Z,32.49
2022-08-11T10:15:17.538Z,32.51
2022-08-11T10:18:15.489Z,32.47
2022-08-11T10:20:45.543Z,32.47
2022-08-11T10:23:32.249Z,32.47
2022-08-11T10:26:17.406Z,32.47
2022-08-11T10:29:11.680Z,32.46
2022-08-11T10:31:57.554Z,32.49
2022-08-11T10:34:29.122Z,32.50
2022-08-11T10:36:57.220Z,32.52
2022-08-11T10:39:26.822Z,32.52
2022-08-11T10:42:25.600Z,32.54
2022-08-11T10:45:02.050Z,32.55
2022-08-11T10:47:35.178Z,32.59
2022-08-11T10:50:32.274Z,32.62
2022-08-11T10:53:18.972Z,32.64
2022-08-11T10:56:05.949Z,32.66
2022-08-11T10:58:48.116Z,32.67
2022-08-11T11:01:22.561Z,32.70
2022-08-11T11:03:55.237Z,32.75
2022-08-11T11:06:45.680Z,32.79
2022-08-11T11:09:32.238Z,32.81
2022-08-11T11:12:30.654Z,32.82
2022-08-11T11:15:17.789Z,32.81
2022-08-11T11:18:04.646Z,32.86
2022-08-11T11:20:49.086Z,32.90
2022-08-11T11:37:25.620Z,33.40
2022-08-11T11:39:55.316Z,33.41
2022-08-11T11:42:22.871Z,33.42
2022-08-11T11:44:54.129Z,33.44
2022-08-11T11:47:23.082Z,33.46
2022-08-11T11:49:50.354Z,33.47
2022-08-11T11:52:20.444Z,33.50
2022-08-11T11:54:51.444Z,33.50
2022-08-11T11:57:39.642Z,33.50
2022-08-11T12:00:33.144Z,33.50
2022-08-11T12:03:07.352Z,33.53
2022-08-11T12:05:35.874Z,33.57
2022-08-11T12:08:13.480Z,33.60
2022-08-11T12:11:22.092Z,33.63
2022-08-11T12:13:52.525Z,33.65
2022-08-11T12:16:34.807Z,33.68
2022-08-11T12:19:07.875Z,33.69
2022-08-11T12:21:37.076Z,33.73
2022-08-11T12:24:29.198Z,33.84
2022-08-11T12:27:17.645Z,33.91
2022-08-11T12:29:54.563Z,34.00
2022-08-11T12:32:26.260Z,34.04
2022-08-11T12:34:53.811Z,34.09
2022-08-11T12:37:29.983Z,34.14
2022-08-11T12:40:42.728Z,34.21
2022-08-11T12:43:37.827Z,34.24
2022-08-11T12:46:19.357Z,34.29
2022-08-11T12:49:07.952Z,34.34
2022-08-11T12:52:13.274Z,34.40
2022-08-11T12:54:58.873Z,34.47
2022-08-11T12:58:06.169Z,34.53
2022-08-11T13:00:51.985Z,34.55
2022-08-11T13:03:39.302Z,34.57
2022-08-11T13:06:07.692Z,34.63
2022-08-11T13:08:38.285Z,34.69
2022-08-11T13:11:24.861Z,34.74
2022-08-11T13:14:15.216Z,34.79
2022-08-11T13:17:03.219Z,34.88
2022-08-11T13:19:31.269Z,34.92
2022-08-11T13:21:58.671Z,34.96
2022-08-11T13:24:25.739Z,35.02
2022-08-11T13:26:52.871Z,35.10
2022-08-11T13:29:23.527Z,35.20
2022-08-11T13:31:56.143Z,35.27
2022-08-11T13:34:26.705Z,35.33
2022-08-11T13:37:00.225Z,35.37
2022-08-11T13:39:32.329Z,35.37
2022-08-11T13:42:01.665Z,35.38
2022-08-11T13:44:31.875Z,35.38
2022-08-11T13:47:04.014Z,35.39
2022-08-11T13:49:35.767Z,35.42
2022-08-11T13:52:04.611Z,35.47
2022-08-11T13:54:35.305Z,35.53
2022-08-11T13:57:09.415Z,35.60
2022-08-11T13:59:51.410Z,35.60
2022-08-11T14:02:30.266Z,35.60
2022-08-11T14:05:23.188Z,35.63
2022-08-11T14:07:53.974Z,35.68
2022-08-11T14:10:24.883Z,35.74
2022-08-11T14:13:19.218Z,35.79
2022-08-11T14:15:48.548Z,35.80
2022-08-11T14:18:29.448Z,35.80
2022-08-11T14:21:19.132Z,35.81
2022-08-11T14:23:55.295Z,35.81
2022-08-11T14:26:29.023Z,35.83
2022-08-11T14:29:08.116Z,35.85
2022-08-11T14:31:39.521Z,35.84
2022-08-11T14:34:12.525Z,35.86
2022-08-11T14:36:44.480Z,35.88
2022-08-11T14:39:17.035Z,35.91
2022-08-11T14:42:11.286Z,35.93
2022-08-11T14:45:08.061Z,35.95
2022-08-11T14:47:38.390Z,35.92
2022-08-11T14:50:11.422Z,35.89
2022-08-11T14:52:50.070Z,35.88
2022-08-11T14:55:37.436Z,35.86
2022-08-11T14:58:05.424Z,35.85
2022-08-11T15:00:34.767Z,35.84
2022-08-11T15:03:11.731Z,35.84
2022-08-11T15:05:57.363Z,35.81
2022-08-11T15:08:50.661Z,35.77
2022-08-11T15:11:39.471Z,35.73
2022-08-11T15:14:10.181Z,35.67
2022-08-11T15:17:00.420Z,35.67
2022-08-11T15:19:40.212Z,35.65
2022-08-11T15:22:28.451Z,35.66
2022-08-11T15:24:58.421Z,35.64
2022-08-11T15:27:44.624Z,35.63
2022-08-11T15:30:33.057Z,35.59
2022-08-11T15:33:28.044Z,35.54
2022-08-11T15:36:15.712Z,35.46
2022-08-11T15:38:58.211Z,35.43
2022-08-11T15:42:17.689Z,35.37
2022-08-11T15:45:11.873Z,35.33
2022-08-11T15:47:45.966Z,35.32
2022-08-11T15:50:19.883Z,35.31
2022-08-11T15:52:53.025Z,35.31
2022-08-11T15:55:21.592Z,35.28
2022-08-11T15:58:09.500Z,35.28
2022-08-11T16:00:59.082Z,35.25
2022-08-11T16:04:08.042Z,35.21
2022-08-11T16:06:57.989Z,35.22
2022-08-11T16:09:37.578Z,35.22
2022-08-11T16:12:20.023Z,35.24
2022-08-11T16:15:10.498Z,35.24
2022-08-11T16:17:50.911Z,35.21
2022-08-11T16:20:21.925Z,35.20
2022-08-11T16:22:55.184Z,35.19
2022-08-11T16:27:01.615Z,35.18
2022-08-11T16:28:17.908Z,35.15
2022-08-11T16:30:46.373Z,35.15
2022-08-11T16:33:48.662Z,35.13
2022-08-11T16:36:23.606Z,35.10
2022-08-11T16:38:51.467Z,35.06
2022-08-11T16:41:41.215Z,35.07
2022-08-11T16:44:37.219Z,35.04
2022-08-11T16:47:08.480Z,34.99
2022-08-11T16:49:38.810Z,34.97
2022-08-11T16:52:12.085Z,34.96
2022-08-11T16:54:41.717Z,34.95
2022-08-11T16:57:42.807Z,34.93
2022-08-11T17:00:13.029Z,34.88
2022-08-11T17:03:25.848Z,34.86
2022-08-11T17:06:12.387Z,34.84
2022-08-11T17:09:28.302Z,34.82
2022-08-11T17:12:16.490Z,34.77
2022-08-11T17:14:54.143Z,34.76
2022-08-11T17:17:33.355Z,34.72
2022-08-11T17:20:41.623Z,34.70
2022-08-11T17:23:15.992Z,34.67
2022-08-11T17:25:59.322Z,34.63
2022-08-11T17:28:32.031Z,34.59
2022-08-11T17:31:22.689Z,34.58
2022-08-11T17:34:10.088Z,34.53
2022-08-11T17:36:40.435Z,34.51
2022-08-11T17:39:13.305Z,34.47
2022-08-11T17:42:00.718Z,34.45
2022-08-11T17:44:46.573Z,34.42
2022-08-11T17:47:33.352Z,34.37
2022-08-11T17:50:16.511Z,34.33
2022-08-11T17:53:05.845Z,34.29
2022-08-11T17:55:57.594Z,34.24
2022-08-11T17:58:48.770Z,34.20
2022-08-11T18:01:16.885Z,34.15
2022-08-11T18:03:53.071Z,34.13
2022-08-11T18:06:33.579Z,34.08
2022-08-11T18:09:23.060Z,34.06
2022-08-11T18:12:12.825Z,33.99
2022-08-11T18:15:05.111Z,33.94
2022-08-11T18:17:51.688Z,33.87
2022-08-11T18:20:37.532Z,33.82
2022-08-11T18:23:46.924Z,33.73
2022-08-11T18:26:38.350Z,33.67
2022-08-11T18:29:26.311Z,33.61
2022-08-11T18:32:21.184Z,33.54
2022-08-11T18:35:11.129Z,33.48
2022-08-11T18:38:06.145Z,33.41
2022-08-11T18:40:52.083Z,33.25
2022-08-11T18:43:43.344Z,33.23
2022-08-11T18:46:32.086Z,33.18
2022-08-11T18:49:24.627Z,33.11
2022-08-11T18:52:14.575Z,33.03
2022-08-11T18:55:03.264Z,32.96
2022-08-11T18:57:53.763Z,32.88
2022-08-11T19:00:41.949Z,32.80
2022-08-11T19:03:30.574Z,32.74
2022-08-11T19:06:39.134Z,32.66
2022-08-11T19:09:31.427Z,32.56
2022-08-11T19:12:19.384Z,32.49
2022-08-11T19:15:11.339Z,32.42
2022-08-11T19:18:02.710Z,32.35
2022-08-11T19:20:51.452Z,32.26
2022-08-11T19:23:46.994Z,32.18
2022-08-11T19:26:34.323Z,32.11
2022-08-11T19:30:05.133Z,32.06
2022-08-11T19:32:44.101Z,31.95
2022-08-11T19:35:31.246Z,31.91
2022-08-11T19:38:17.812Z,31.86
2022-08-11T19:41:04.531Z,31.80
2022-08-11T19:43:51.941Z,31.77
2022-08-11T19:46:39.770Z,31.73
2022-08-11T19:49:27.584Z,31.68
2022-08-11T19:52:14.930Z,31.63
2022-08-11T19:55:03.556Z,31.59
2022-08-11T19:57:50.789Z,31.54
2022-08-11T20:00:38.336Z,31.48
2022-08-11T20:03:29.041Z,31.44
2022-08-11T20:06:19.592Z,31.39
2022-08-11T20:09:07.953Z,31.31
2022-08-11T20:11:59.989Z,31.27
2022-08-11T20:14:49.548Z,31.22
2022-08-11T20:17:36.498Z,31.18
2022-08-11T20:20:26.807Z,31.11
2022-08-11T20:23:14.577Z,31.07
2022-08-11T20:26:08.683Z,31.02
2022-08-11T20:29:09.467Z,30.96
2022-08-11T20:31:56.262Z,30.93
2022-08-11T20:34:42.532Z,30.88
2022-08-11T20:37:29.336Z,30.85
2022-08-11T20:40:16.172Z,30.81
2022-08-11T20:43:09.404Z,30.76
2022-08-11T20:46:15.609Z,30.73
2022-08-11T20:49:02.423Z,30.67
2022-08-11T20:51:48.470Z,30.63
2022-08-11T20:58:04.799Z,30.53
2022-08-11T21:00:52.743Z,30.48
2022-08-11T21:06:47.631Z,30.38
2022-08-11T21:10:01.148Z,30.33
2022-08-11T21:12:41.673Z,30.27
2022-08-11T21:15:39.107Z,30.22
2022-08-11T21:18:35.292Z,30.17
2022-08-11T21:21:25.193Z,30.11
2022-08-11T21:24:13.156Z,30.06
2022-08-11T21:27:06.529Z,29.98
2022-08-11T21:29:54.802Z,29.94
2022-08-11T21:32:41.802Z,29.89
2022-08-11T21:35:29.031Z,29.84
2022-08-11T21:38:15.875Z,29.77
2022-08-11T21:41:01.181Z,29.69
2022-08-11T21:43:50.032Z,29.64
2022-08-11T21:46:39.325Z,29.59
2022-08-11T21:49:27.621Z,29.54
2022-08-11T21:52:12.995Z,29.47
2022-08-11T21:54:59.552Z,29.42
2022-08-11T21:57:48.178Z,29.36
2022-08-11T22:00:37.747Z,29.31
2022-08-11T22:03:24.050Z,29.27
2022-08-11T22:06:11.198Z,29.24
2022-08-11T22:08:56.458Z,29.19
2022-08-11T22:11:42.365Z,29.16
2022-08-11T22:14:27.561Z,29.11
2022-08-11T22:17:12.922Z,29.06
2022-08-11T22:20:00.714Z,29.03
2022-08-11T22:22:52.170Z,28.98
2022-08-11T22:25:50.772Z,28.94
2022-08-11T22:28:37.585Z,28.89
2022-08-11T22:31:24.427Z,28.84
2022-08-11T22:34:09.702Z,28.79
2022-08-11T22:36:55.482Z,28.76
2022-08-11T22:39:42.263Z,28.70
2022-08-11T22:42:33.567Z,28.67
2022-08-11T22:45:20.424Z,28.63
2022-08-11T22:48:08.084Z,28.57
2022-08-11T22:50:57.680Z,28.54
2022-08-11T22:53:57.395Z,28.49
2022-08-11T22:56:46.800Z,28.44
2022-08-11T22:59:33.572Z,28.40
2022-08-11T23:02:20.521Z,28.37
2022-08-11T23:05:08.409Z,28.32
2022-08-11T23:07:55.255Z,28.29
2022-08-11T23:10:41.462Z,28.26
2022-08-11T23:13:27.628Z,28.22
2022-08-11T23:16:14.244Z,28.18
2022-08-11T23:19:00.013Z,28.15
2022-08-11T23:21:47.011Z,28.12
2022-08-11T23:24:32.827Z,28.08
2022-08-11T23:27:21.145Z,28.03
2022-08-11T23:30:09.387Z,28.00
2022-08-11T23:32:57.551Z,27.96
2022-08-11T23:35:53.800Z,27.91
2022-08-11T23:38:44.010Z,27.87
2022-08-11T23:41:33.831Z,27.82
2022-08-11T23:44:24.084Z,27.78
2022-08-11T23:47:14.917Z,27.73
2022-08-11T23:50:01.213Z,27.69
2022-08-11T23:52:47.889Z,27.63
2022-08-11T23:55:33.681Z,27.58
2022-08-11T23:58:19.496Z,27.54
